PWSweather.com
Personal Weather Stations
Station Observations
MIKESPOST
YorkGB

YorkGB

Lat: 53.9577018, Lon: -1.0822855

Elevation: 0

Station Type: WH1081

High Low Average
Temperature 36.1°F2.3°C 32.4°F0.2°C 33.9°F1.1°C
Dew Point 28.6°F-1.9°C 23.7°F-4.6°C 25.9°F-3.4°C
Winds 5.8 mph 9.3 kmh Calm Calm 2.0 mph SW3.2 kmh SW
Wind Gusts 12.4 mph20.0 kmh -- 5.0 mph8.0 kmh
Humidity 82% 65% 73%
Pressure 31.00 in1049.8 mb 30.84 in1044.4 mb -
Precipitation 0.00 in0.0 mm - -
Hour Temp Dew Point Humidity Winds Wind Gusts Pressure Precip Precip Rate Daily Precip Total
12:03 AM 36.1°F2.3°C 28.6°F-1.9°C 74% 5.6 mph SSW9.0 kmh SSW 11.4 mph18.3 kmh 30.84 in1044.4 mb 0.00 in0.0 mm 0.00 in/hr0.0 mm/hr 0.00 in0.0 mm
12:13 AM 36.1°F2.3°C 28.3°F-2.1°C 73% 5.7 mph SW9.2 kmh SW 10.4 mph16.7 kmh 30.84 in1044.4 mb 0.00 in0.0 mm 0.00 in/hr0.0 mm/hr 0.00 in0.0 mm
12:23 AM 35.8°F2.1°C 27.9°F-2.3°C 73% 4.2 mph SW6.8 kmh SW 6.7 mph10.8 kmh 30.84 in1044.4 mb 0.00 in0.0 mm 0.00 in/hr0.0 mm/hr 0.00 in0.0 mm
12:33 AM 35.4°F1.9°C 27.9°F-2.3°C 74% 5.8 mph SW9.3 kmh SW 11.4 mph18.3 kmh 30.84 in1044.4 mb 0.00 in0.0 mm 0.00 in/hr0.0 mm/hr 0.00 in0.0 mm
12:43 AM 34.9°F1.6°C 27.7°F-2.4°C 75% 4.2 mph SW6.8 kmh SW 8.1 mph13.0 kmh 30.85 in1044.7 mb 0.00 in0.0 mm 0.00 in/hr0.0 mm/hr 0.00 in0.0 mm
12:53 AM 34.5°F1.4°C 27.4°F-2.6°C 75% 3.5 mph WSW5.6 kmh WSW 4.7 mph7.6 kmh 30.85 in1044.7 mb 0.00 in0.0 mm 0.00 in/hr0.0 mm/hr 0.00 in0.0 mm
01:03 AM 34.0°F1.1°C 27.2°F-2.7°C 76% 2.3 mph WSW3.7 kmh WSW 4.7 mph7.6 kmh 30.85 in1044.7 mb 0.00 in0.0 mm 0.00 in/hr0.0 mm/hr 0.00 in0.0 mm
01:13 AM 33.8°F1.0°C 27.3°F-2.6°C 77% 2.6 mph W4.2 kmh W 4.7 mph7.6 kmh 30.85 in1044.7 mb 0.00 in0.0 mm 0.00 in/hr0.0 mm/hr 0.00 in0.0 mm
01:23 AM 33.3°F0.7°C 27.1°F-2.7°C 78% 2.0 mph SW3.2 kmh SW 3.4 mph5.5 kmh 30.85 in1044.7 mb 0.00 in0.0 mm 0.00 in/hr0.0 mm/hr 0.00 in0.0 mm
01:33 AM 33.3°F0.7°C 27.1°F-2.7°C 78% 2.3 mph SW3.7 kmh SW 4.7 mph7.6 kmh 30.85 in1044.7 mb 0.00 in0.0 mm 0.00 in/hr0.0 mm/hr 0.00 in0.0 mm
01:43 AM 33.1°F0.6°C 27.3°F-2.6°C 79% 2.4 mph WSW3.9 kmh WSW 3.4 mph5.5 kmh 30.85 in1044.7 mb 0.00 in0.0 mm 0.00 in/hr0.0 mm/hr 0.00 in0.0 mm
01:53 AM 33.1°F0.6°C 27.3°F-2.6°C 79% 2.5 mph W4.0 kmh W 3.4 mph5.5 kmh 30.85 in1044.7 mb 0.00 in0.0 mm 0.00 in/hr0.0 mm/hr 0.00 in0.0 mm
02:03 AM 33.1°F0.6°C 27.3°F-2.6°C 79% 2.1 mph WSW3.4 kmh WSW 4.7 mph7.6 kmh 30.85 in1044.7 mb 0.00 in0.0 mm 0.00 in/hr0.0 mm/hr 0.00 in0.0 mm
02:13 AM 32.9°F0.5°C 27.1°F-2.7°C 79% 2.0 mph W3.2 kmh W 4.7 mph7.6 kmh 30.85 in1044.7 mb 0.00 in0.0 mm 0.00 in/hr0.0 mm/hr 0.00 in0.0 mm
02:23 AM 32.7°F0.4°C 26.9°F-2.8°C 79% 1.8 mph WSW2.9 kmh WSW 4.7 mph7.6 kmh 30.86 in1045.0 mb 0.00 in0.0 mm 0.00 in/hr0.0 mm/hr 0.00 in0.0 mm
02:33 AM 32.5°F0.3°C 27.1°F-2.7°C 80% 1.6 mph S2.6 kmh S 5.7 mph9.2 kmh 30.85 in1044.7 mb 0.00 in0.0 mm 0.00 in/hr0.0 mm/hr 0.00 in0.0 mm
02:43 AM 32.4°F0.2°C 26.9°F-2.8°C 80% 2.1 mph W3.4 kmh W 5.7 mph9.2 kmh 30.86 in1045.0 mb 0.00 in0.0 mm 0.00 in/hr0.0 mm/hr 0.00 in0.0 mm
02:53 AM 32.9°F0.5°C 27.7°F-2.4°C 81% 2.7 mph SW4.3 kmh SW 5.7 mph9.2 kmh 30.86 in1045.0 mb 0.00 in0.0 mm 0.00 in/hr0.0 mm/hr 0.00 in0.0 mm
03:03 AM 32.9°F0.5°C 27.4°F-2.6°C 80% 1.6 mph WSW2.6 kmh WSW 4.7 mph7.6 kmh 30.86 in1045.0 mb 0.00 in0.0 mm 0.00 in/hr0.0 mm/hr 0.00 in0.0 mm
03:13 AM 32.9°F0.5°C 27.7°F-2.4°C 81% 2.0 mph WSW3.2 kmh WSW 5.7 mph9.2 kmh 30.86 in1045.0 mb 0.00 in0.0 mm 0.00 in/hr0.0 mm/hr 0.00 in0.0 mm
03:23 AM 33.1°F0.6°C 27.9°F-2.3°C 81% 2.0 mph WNW3.2 kmh WNW 5.7 mph9.2 kmh 30.85 in1044.7 mb 0.00 in0.0 mm 0.00 in/hr0.0 mm/hr 0.00 in0.0 mm
03:33 AM 33.3°F0.7°C 28.4°F-2.0°C 82% 3.0 mph SW4.8 kmh SW 5.7 mph9.2 kmh 30.86 in1045.0 mb 0.00 in0.0 mm 0.00 in/hr0.0 mm/hr 0.00 in0.0 mm
06:03 AM 34.5°F1.4°C 27.4°F-2.6°C 75% 5.4 mph SSW8.7 kmh SSW 12.4 mph20.0 kmh 30.89 in1046.1 mb 0.00 in0.0 mm 0.00 in/hr0.0 mm/hr 0.00 in0.0 mm
06:13 AM 34.5°F1.4°C 27.1°F-2.7°C 74% 4.4 mph SW7.1 kmh SW 8.1 mph13.0 kmh 30.89 in1046.1 mb 0.00 in0.0 mm 0.00 in/hr0.0 mm/hr 0.00 in0.0 mm
06:23 AM 34.5°F1.4°C 27.1°F-2.7°C 74% 3.4 mph SW5.5 kmh SW 4.7 mph7.6 kmh 30.89 in1046.1 mb 0.00 in0.0 mm 0.00 in/hr0.0 mm/hr 0.00 in0.0 mm
06:33 AM 34.7°F1.5°C 27.2°F-2.7°C 74% 3.7 mph WSW6.0 kmh WSW 5.7 mph9.2 kmh 30.89 in1046.1 mb 0.00 in0.0 mm 0.00 in/hr0.0 mm/hr 0.00 in0.0 mm
06:43 AM 34.5°F1.4°C 27.1°F-2.7°C 74% 4.3 mph SW6.9 kmh SW 6.7 mph10.8 kmh 30.90 in1046.4 mb 0.00 in0.0 mm 0.00 in/hr0.0 mm/hr 0.00 in0.0 mm
06:53 AM 34.5°F1.4°C 27.1°F-2.7°C 74% 3.1 mph SW5.0 kmh SW 4.7 mph7.6 kmh 30.90 in1046.4 mb 0.00 in0.0 mm 0.00 in/hr0.0 mm/hr 0.00 in0.0 mm
07:43 PM 34.2°F1.2°C 24.2°F-4.3°C 67% 1.0 mph NNW1.6 kmh NNW 3.4 mph5.5 kmh 30.98 in1049.1 mb 0.00 in0.0 mm 0.00 in/hr0.0 mm/hr 0.00 in0.0 mm
07:53 PM 34.2°F1.2°C 24.2°F-4.3°C 67% 1.2 mph WNW1.9 kmh WNW 2.3 mph3.7 kmh 30.99 in1049.4 mb 0.00 in0.0 mm 0.00 in/hr0.0 mm/hr 0.00 in0.0 mm
08:03 PM 34.0°F1.1°C 24.1°F-4.4°C 67% 1.1 mph S1.8 kmh S 4.7 mph7.6 kmh 30.99 in1049.4 mb 0.00 in0.0 mm 0.00 in/hr0.0 mm/hr 0.00 in0.0 mm
08:13 PM 34.2°F1.2°C 23.9°F-4.5°C 66% 2.0 mph SW3.2 kmh SW 6.7 mph10.8 kmh 30.99 in1049.4 mb 0.00 in0.0 mm 0.00 in/hr0.0 mm/hr 0.00 in0.0 mm
08:23 PM 34.3°F1.3°C 24.0°F-4.4°C 66% 1.5 mph WSW2.4 kmh WSW 2.3 mph3.7 kmh 30.99 in1049.4 mb 0.00 in0.0 mm 0.00 in/hr0.0 mm/hr 0.00 in0.0 mm
08:33 PM 34.5°F1.4°C 23.8°F-4.6°C 65% 2.2 mph SSW3.5 kmh SSW 4.7 mph7.6 kmh 30.99 in1049.4 mb 0.00 in0.0 mm 0.00 in/hr0.0 mm/hr 0.00 in0.0 mm
08:43 PM 34.5°F1.4°C 23.8°F-4.6°C 65% 2.4 mph SW3.9 kmh SW 4.7 mph7.6 kmh 31.00 in1049.8 mb 0.00 in0.0 mm 0.00 in/hr0.0 mm/hr 0.00 in0.0 mm
08:53 PM 34.5°F1.4°C 23.8°F-4.6°C 65% 2.0 mph SW3.2 kmh SW 2.3 mph3.7 kmh 31.00 in1049.8 mb 0.00 in0.0 mm 0.00 in/hr0.0 mm/hr 0.00 in0.0 mm
09:03 PM 34.5°F1.4°C 24.2°F-4.3°C 66% 2.3 mph SW3.7 kmh SW 3.4 mph5.5 kmh 30.99 in1049.4 mb 0.00 in0.0 mm 0.00 in/hr0.0 mm/hr 0.00 in0.0 mm
09:13 PM 34.3°F1.3°C 24.0°F-4.4°C 66% 1.7 mph SW2.7 kmh SW 3.4 mph5.5 kmh 30.99 in1049.4 mb 0.00 in0.0 mm 0.00 in/hr0.0 mm/hr 0.00 in0.0 mm
09:23 PM 34.2°F1.2°C 24.2°F-4.3°C 67% 2.0 mph SW3.2 kmh SW 2.3 mph3.7 kmh 30.99 in1049.4 mb 0.00 in0.0 mm 0.00 in/hr0.0 mm/hr 0.00 in0.0 mm
09:33 PM 34.0°F1.1°C 24.1°F-4.4°C 67% 1.5 mph WSW2.4 kmh WSW 3.4 mph5.5 kmh 30.99 in1049.4 mb 0.00 in0.0 mm 0.00 in/hr0.0 mm/hr 0.00 in0.0 mm
09:43 PM 34.2°F1.2°C 24.2°F-4.3°C 67% 1.7 mph WNW2.7 kmh WNW 3.4 mph5.5 kmh 30.99 in1049.4 mb 0.00 in0.0 mm 0.00 in/hr0.0 mm/hr 0.00 in0.0 mm
09:53 PM 34.0°F1.1°C 24.1°F-4.4°C 67% 0.8 mph WNW1.3 kmh WNW 2.3 mph3.7 kmh 30.99 in1049.4 mb 0.00 in0.0 mm 0.00 in/hr0.0 mm/hr 0.00 in0.0 mm
10:03 PM 34.0°F1.1°C 24.1°F-4.4°C 67% 1.1 mph W1.8 kmh W 3.4 mph5.5 kmh 30.99 in1049.4 mb 0.00 in0.0 mm 0.00 in/hr0.0 mm/hr 0.00 in0.0 mm
10:13 PM 34.0°F1.1°C 24.1°F-4.4°C 67% 1.9 mph SW3.1 kmh SW 3.4 mph5.5 kmh 31.00 in1049.8 mb 0.00 in0.0 mm 0.00 in/hr0.0 mm/hr 0.00 in0.0 mm
10:23 PM 33.8°F1.0°C 23.9°F-4.5°C 67% 0.9 mph SW1.4 kmh SW 3.4 mph5.5 kmh 31.00 in1049.8 mb 0.00 in0.0 mm 0.00 in/hr0.0 mm/hr 0.00 in0.0 mm
10:33 PM 33.6°F0.9°C 23.7°F-4.6°C 67% 0.4 mph NNW0.6 kmh NNW 2.3 mph3.7 kmh 31.00 in1049.8 mb 0.00 in0.0 mm 0.00 in/hr0.0 mm/hr 0.00 in0.0 mm
10:43 PM 33.4°F0.8°C 23.9°F-4.5°C 68% 0.2 mph WSW0.3 kmh WSW 1.0 mph1.6 kmh 31.00 in1049.8 mb 0.00 in0.0 mm 0.00 in/hr0.0 mm/hr 0.00 in0.0 mm
10:53 PM 33.4°F0.8°C 24.3°F-4.3°C 69% 0.7 mph NE1.1 kmh NE 4.7 mph7.6 kmh 31.00 in1049.8 mb 0.00 in0.0 mm 0.00 in/hr0.0 mm/hr 0.00 in0.0 mm
11:03 PM 33.1°F0.6°C 24.3°F-4.3°C 70% 0.2 mph W0.3 kmh W 1.0 mph1.6 kmh 31.00 in1049.8 mb 0.00 in0.0 mm 0.00 in/hr0.0 mm/hr 0.00 in0.0 mm
11:13 PM 33.1°F0.6°C 24.3°F-4.3°C 70% Calm Calm -- 31.00 in1049.8 mb 0.00 in0.0 mm 0.00 in/hr0.0 mm/hr 0.00 in0.0 mm
11:23 PM 33.1°F0.6°C 24.6°F-4.1°C 71% 0.5 mph SE0.8 kmh SE 2.3 mph3.7 kmh 31.00 in1049.8 mb 0.00 in0.0 mm 0.00 in/hr0.0 mm/hr 0.00 in0.0 mm
11:33 PM 33.3°F0.7°C 24.8°F-4.0°C 71% 0.3 mph W0.5 kmh W 1.0 mph1.6 kmh 31.00 in1049.8 mb 0.00 in0.0 mm 0.00 in/hr0.0 mm/hr 0.00 in0.0 mm
11:43 PM 33.1°F0.6°C 24.6°F-4.1°C 71% 0.3 mph NW0.5 kmh NW 2.3 mph3.7 kmh 30.99 in1049.4 mb 0.00 in0.0 mm 0.00 in/hr0.0 mm/hr 0.00 in0.0 mm
11:53 PM 33.1°F0.6°C 24.6°F-4.1°C 71% 0.2 mph W0.3 kmh W 1.0 mph1.6 kmh 30.99 in1049.4 mb 0.00 in0.0 mm 0.00 in/hr0.0 mm/hr 0.00 in0.0 mm